Newcomb, Maryland
Current Conditions -  °F | °C
As of 10:10 PM on Friday 21 Nov 2014 (Local Time) from KESN Reporting Station
Clear Clear  
Wind Chill: 28°   Ceiling: Unl
Heat Index: 28°   Visibility: 10mi
Dew Point: 17°   Wind: 0mph
Humidity: 62%   Direction: NA
Pressure: 30.59"   Gusts: NA
Location:  38.75°N, 76.18°W
Report Text: KESN 220310Z AUTO 00000KT 10SM CLR M02/M09 A3059 RMK AO2 T10211086
Loading
Personal Weather Stations






























Interactive Weather Map New forecast layout! Learn more

10-Day Weather Forecast

Advertisements
Track Severe Weather on mobile